sensor_id;sensor_type;location;lat;lon;timestamp;temperature;humidity
52321;DHT22;38261;54.090;13.382;2022-07-11T00:01:15;14.20;99.90
52321;DHT22;38261;54.090;13.382;2022-07-11T00:02:38;14.20;99.90
52321;DHT22;38261;54.090;13.382;2022-07-11T00:04:04;14.10;99.90
52321;DHT22;38261;54.090;13.382;2022-07-11T00:05:27;14.10;99.90
52321;DHT22;38261;54.090;13.382;2022-07-11T00:06:49;14.10;99.90
52321;DHT22;38261;54.090;13.382;2022-07-11T00:08:11;14.10;99.90
52321;DHT22;38261;54.090;13.382;2022-07-11T00:09:35;14.10;99.90
52321;DHT22;38261;54.090;13.382;2022-07-11T00:10:57;14.10;99.90
52321;DHT22;38261;54.090;13.382;2022-07-11T00:12:23;14.00;99.90
52321;DHT22;38261;54.090;13.382;2022-07-11T00:13:48;14.00;99.90
52321;DHT22;38261;54.090;13.382;2022-07-11T00:15:12;14.00;99.90
52321;DHT22;38261;54.090;13.382;2022-07-11T00:16:34;14.00;99.90
52321;DHT22;38261;54.090;13.382;2022-07-11T00:17:56;13.90;99.90
52321;DHT22;38261;54.090;13.382;2022-07-11T00:19:20;13.90;99.90
52321;DHT22;38261;54.090;13.382;2022-07-11T00:20:42;13.90;99.90
52321;DHT22;38261;54.090;13.382;2022-07-11T00:22:05;13.80;99.90
52321;DHT22;38261;54.090;13.382;2022-07-11T00:23:28;13.80;99.90
52321;DHT22;38261;54.090;13.382;2022-07-11T00:24:50;13.80;99.90
52321;DHT22;38261;54.090;13.382;2022-07-11T00:26:13;13.80;99.90
52321;DHT22;38261;54.090;13.382;2022-07-11T00:27:35;13.80;99.90
52321;DHT22;38261;54.090;13.382;2022-07-11T00:28:57;13.80;99.90
52321;DHT22;38261;54.090;13.382;2022-07-11T00:30:19;13.70;99.90
52321;DHT22;38261;54.090;13.382;2022-07-11T00:31:41;13.70;99.90
52321;DHT22;38261;54.090;13.382;2022-07-11T00:33:04;13.70;99.90
52321;DHT22;38261;54.090;13.382;2022-07-11T00:34:27;13.70;99.90
52321;DHT22;38261;54.090;13.382;2022-07-11T00:35:49;13.70;99.90
52321;DHT22;38261;54.090;13.382;2022-07-11T00:37:11;13.60;99.90
52321;DHT22;38261;54.090;13.382;2022-07-11T00:38:33;13.60;99.90
52321;DHT22;38261;54.090;13.382;2022-07-11T00:39:55;13.60;99.90
52321;DHT22;38261;54.090;13.382;2022-07-11T00:41:21;13.60;99.90
52321;DHT22;38261;54.090;13.382;2022-07-11T00:42:44;13.60;99.90
52321;DHT22;38261;54.090;13.382;2022-07-11T00:44:06;13.50;99.90
52321;DHT22;38261;54.090;13.382;2022-07-11T00:45:29;13.50;99.90
52321;DHT22;38261;54.090;13.382;2022-07-11T00:46:51;13.50;99.90
52321;DHT22;38261;54.090;13.382;2022-07-11T00:48:13;13.50;99.90
52321;DHT22;38261;54.090;13.382;2022-07-11T00:49:36;13.50;99.90
52321;DHT22;38261;54.090;13.382;2022-07-11T00:50:59;13.50;99.90
52321;DHT22;38261;54.090;13.382;2022-07-11T00:52:23;13.50;99.90
52321;DHT22;38261;54.090;13.382;2022-07-11T00:53:46;13.50;99.90
52321;DHT22;38261;54.090;13.382;2022-07-11T00:55:11;13.50;99.90
52321;DHT22;38261;54.090;13.382;2022-07-11T00:56:33;13.50;99.90
52321;DHT22;38261;54.090;13.382;2022-07-11T00:57:55;13.40;99.90
52321;DHT22;38261;54.090;13.382;2022-07-11T00:59:19;13.40;99.90
52321;DHT22;38261;54.090;13.382;2022-07-11T01:00:41;13.40;99.90
52321;DHT22;38261;54.090;13.382;2022-07-11T01:02:04;13.40;99.90
52321;DHT22;38261;54.090;13.382;2022-07-11T01:03:26;13.40;99.90
52321;DHT22;38261;54.090;13.382;2022-07-11T01:04:49;13.40;99.90
52321;DHT22;38261;54.090;13.382;2022-07-11T01:06:12;13.40;99.90
52321;DHT22;38261;54.090;13.382;2022-07-11T01:07:34;13.30;99.90
52321;DHT22;38261;54.090;13.382;2022-07-11T01:08:56;13.30;99.90
52321;DHT22;38261;54.090;13.382;2022-07-11T01:10:18;13.30;99.90
52321;DHT22;38261;54.090;13.382;2022-07-11T01:11:41;13.30;99.90
52321;DHT22;38261;54.090;13.382;2022-07-11T01:13:04;13.30;99.90
52321;DHT22;38261;54.090;13.382;2022-07-11T01:14:26;13.30;99.90
52321;DHT22;38261;54.090;13.382;2022-07-11T01:15:48;13.30;99.90
52321;DHT22;38261;54.090;13.382;2022-07-11T01:17:11;13.20;99.90
52321;DHT22;38261;54.090;13.382;2022-07-11T01:18:33;13.20;99.90
52321;DHT22;38261;54.090;13.382;2022-07-11T01:19:55;13.20;99.90
52321;DHT22;38261;54.090;13.382;2022-07-11T01:21:32;13.20;99.90
52321;DHT22;38261;54.090;13.382;2022-07-11T01:23:06;13.20;99.90
52321;DHT22;38261;54.090;13.382;2022-07-11T01:24:29;13.20;99.90
52321;DHT22;38261;54.090;13.382;2022-07-11T01:25:52;13.20;99.90
52321;DHT22;38261;54.090;13.382;2022-07-11T01:27:15;13.20;99.90
52321;DHT22;38261;54.090;13.382;2022-07-11T01:28:37;13.10;99.90
52321;DHT22;38261;54.090;13.382;2022-07-11T01:29:59;13.10;99.90
52321;DHT22;38261;54.090;13.382;2022-07-11T01:31:22;13.10;99.90
52321;DHT22;38261;54.090;13.382;2022-07-11T01:32:44;13.10;99.90
52321;DHT22;38261;54.090;13.382;2022-07-11T01:34:06;13.10;99.90
52321;DHT22;38261;54.090;13.382;2022-07-11T01:35:29;13.10;99.90
52321;DHT22;38261;54.090;13.382;2022-07-11T01:36:51;13.10;99.90
52321;DHT22;38261;54.090;13.382;2022-07-11T01:38:13;13.00;99.90
52321;DHT22;38261;54.090;13.382;2022-07-11T01:39:35;13.00;99.90
52321;DHT22;38261;54.090;13.382;2022-07-11T01:40:58;13.00;99.90
52321;DHT22;38261;54.090;13.382;2022-07-11T01:42:20;13.00;99.90
52321;DHT22;38261;54.090;13.382;2022-07-11T01:43:42;13.00;99.90
52321;DHT22;38261;54.090;13.382;2022-07-11T01:45:05;13.00;99.90
52321;DHT22;38261;54.090;13.382;2022-07-11T01:46:28;13.00;99.90
52321;DHT22;38261;54.090;13.382;2022-07-11T01:47:50;12.90;99.90
52321;DHT22;38261;54.090;13.382;2022-07-11T01:49:12;12.90;99.90
52321;DHT22;38261;54.090;13.382;2022-07-11T01:50:34;12.90;99.90
52321;DHT22;38261;54.090;13.382;2022-07-11T01:51:56;12.90;99.90
52321;DHT22;38261;54.090;13.382;2022-07-11T01:53:19;12.80;99.90
52321;DHT22;38261;54.090;13.382;2022-07-11T01:54:41;12.80;99.90
52321;DHT22;38261;54.090;13.382;2022-07-11T01:56:03;12.80;99.90
52321;DHT22;38261;54.090;13.382;2022-07-11T01:57:45;12.80;99.90
52321;DHT22;38261;54.090;13.382;2022-07-11T01:59:08;12.80;99.90
52321;DHT22;38261;54.090;13.382;2022-07-11T02:00:30;12.80;99.90
52321;DHT22;38261;54.090;13.382;2022-07-11T02:01:53;12.80;99.90
52321;DHT22;38261;54.090;13.382;2022-07-11T02:03:15;12.80;99.90
52321;DHT22;38261;54.090;13.382;2022-07-11T02:04:38;12.70;99.90
52321;DHT22;38261;54.090;13.382;2022-07-11T02:06:00;12.80;99.90
52321;DHT22;38261;54.090;13.382;2022-07-11T02:07:22;12.80;99.90
52321;DHT22;38261;54.090;13.382;2022-07-11T02:09:04;12.70;99.90
52321;DHT22;38261;54.090;13.382;2022-07-11T02:10:27;12.70;99.90
52321;DHT22;38261;54.090;13.382;2022-07-11T02:11:51;12.70;99.90
52321;DHT22;38261;54.090;13.382;2022-07-11T02:13:15;12.70;99.90
52321;DHT22;38261;54.090;13.382;2022-07-11T02:14:37;12.70;99.90
52321;DHT22;38261;54.090;13.382;2022-07-11T02:15:59;12.70;99.90
52321;DHT22;38261;54.090;13.382;2022-07-11T02:17:21;12.60;99.90
52321;DHT22;38261;54.090;13.382;2022-07-11T02:18:43;12.60;99.90
52321;DHT22;38261;54.090;13.382;2022-07-11T02:20:06;12.60;99.90
52321;DHT22;38261;54.090;13.382;2022-07-11T02:21:29;12.60;99.90
52321;DHT22;38261;54.090;13.382;2022-07-11T02:22:51;12.60;99.90
52321;DHT22;38261;54.090;13.382;2022-07-11T02:24:13;12.60;99.90
52321;DHT22;38261;54.090;13.382;2022-07-11T02:25:35;12.60;99.90
52321;DHT22;38261;54.090;13.382;2022-07-11T02:27:00;12.60;99.90
52321;DHT22;38261;54.090;13.382;2022-07-11T02:28:23;12.60;99.90
52321;DHT22;38261;54.090;13.382;2022-07-11T02:29:45;12.60;99.90
52321;DHT22;38261;54.090;13.382;2022-07-11T02:31:07;12.60;99.90
52321;DHT22;38261;54.090;13.382;2022-07-11T02:32:29;12.50;99.90
52321;DHT22;38261;54.090;13.382;2022-07-11T02:33:51;12.50;99.90
52321;DHT22;38261;54.090;13.382;2022-07-11T02:35:13;12.50;99.90
52321;DHT22;38261;54.090;13.382;2022-07-11T02:36:36;12.50;99.90
52321;DHT22;38261;54.090;13.382;2022-07-11T02:37:58;12.50;99.90
52321;DHT22;38261;54.090;13.382;2022-07-11T02:39:20;12.50;99.90
52321;DHT22;38261;54.090;13.382;2022-07-11T02:40:42;12.50;99.90
52321;DHT22;38261;54.090;13.382;2022-07-11T02:42:07;12.40;99.90
52321;DHT22;38261;54.090;13.382;2022-07-11T02:43:29;12.40;99.90
52321;DHT22;38261;54.090;13.382;2022-07-11T02:44:51;12.40;99.90
52321;DHT22;38261;54.090;13.382;2022-07-11T02:46:14;12.40;99.90
52321;DHT22;38261;54.090;13.382;2022-07-11T02:47:37;12.40;99.90
52321;DHT22;38261;54.090;13.382;2022-07-11T02:49:01;12.40;99.90
52321;DHT22;38261;54.090;13.382;2022-07-11T02:50:23;12.40;99.90
52321;DHT22;38261;54.090;13.382;2022-07-11T02:51:45;12.50;99.90
52321;DHT22;38261;54.090;13.382;2022-07-11T02:53:08;12.50;99.90
52321;DHT22;38261;54.090;13.382;2022-07-11T02:54:31;12.50;99.90
52321;DHT22;38261;54.090;13.382;2022-07-11T02:55:53;12.50;99.90
52321;DHT22;38261;54.090;13.382;2022-07-11T02:57:16;12.50;99.90
52321;DHT22;38261;54.090;13.382;2022-07-11T02:58:38;12.50;99.90
52321;DHT22;38261;54.090;13.382;2022-07-11T02:59:59;12.50;99.90
52321;DHT22;38261;54.090;13.382;2022-07-11T03:01:22;12.60;99.90
52321;DHT22;38261;54.090;13.382;2022-07-11T03:02:44;12.60;99.90
52321;DHT22;38261;54.090;13.382;2022-07-11T03:04:10;12.60;99.90
52321;DHT22;38261;54.090;13.382;2022-07-11T03:05:32;12.60;99.90
52321;DHT22;38261;54.090;13.382;2022-07-11T03:06:54;12.60;99.90
52321;DHT22;38261;54.090;13.382;2022-07-11T03:08:17;12.60;99.90
52321;DHT22;38261;54.090;13.382;2022-07-11T03:09:39;12.60;99.90
52321;DHT22;38261;54.090;13.382;2022-07-11T03:11:01;12.60;99.90
52321;DHT22;38261;54.090;13.382;2022-07-11T03:12:28;12.60;99.90
52321;DHT22;38261;54.090;13.382;2022-07-11T03:13:50;12.70;99.90
52321;DHT22;38261;54.090;13.382;2022-07-11T03:15:12;12.70;99.90
52321;DHT22;38261;54.090;13.382;2022-07-11T03:16:34;12.70;99.90
52321;DHT22;38261;54.090;13.382;2022-07-11T03:17:56;12.70;99.90
52321;DHT22;38261;54.090;13.382;2022-07-11T03:19:19;12.70;99.90
52321;DHT22;38261;54.090;13.382;2022-07-11T03:20:41;12.70;99.90
52321;DHT22;38261;54.090;13.382;2022-07-11T03:22:04;12.70;99.90
52321;DHT22;38261;54.090;13.382;2022-07-11T03:23:26;12.70;99.90
52321;DHT22;38261;54.090;13.382;2022-07-11T03:24:49;12.80;99.90
52321;DHT22;38261;54.090;13.382;2022-07-11T03:26:12;12.80;99.90
52321;DHT22;38261;54.090;13.382;2022-07-11T03:27:34;12.90;99.90
52321;DHT22;38261;54.090;13.382;2022-07-11T03:28:57;12.90;99.90
52321;DHT22;38261;54.090;13.382;2022-07-11T03:30:19;12.90;99.90
52321;DHT22;38261;54.090;13.382;2022-07-11T03:31:41;13.00;99.90
52321;DHT22;38261;54.090;13.382;2022-07-11T03:33:03;13.00;99.90
52321;DHT22;38261;54.090;13.382;2022-07-11T03:34:25;13.10;99.90
52321;DHT22;38261;54.090;13.382;2022-07-11T03:35:47;13.20;99.90
52321;DHT22;38261;54.090;13.382;2022-07-11T03:37:10;13.20;99.90
52321;DHT22;38261;54.090;13.382;2022-07-11T03:38:32;13.30;99.90
52321;DHT22;38261;54.090;13.382;2022-07-11T03:39:54;13.30;99.90
52321;DHT22;38261;54.090;13.382;2022-07-11T03:41:16;13.40;99.90
52321;DHT22;38261;54.090;13.382;2022-07-11T03:42:38;13.50;99.90
52321;DHT22;38261;54.090;13.382;2022-07-11T03:44:00;13.90;99.90
52321;DHT22;38261;54.090;13.382;2022-07-11T03:45:22;14.60;99.90
52321;DHT22;38261;54.090;13.382;2022-07-11T03:46:44;15.70;99.90
52321;DHT22;38261;54.090;13.382;2022-07-11T03:48:07;16.70;99.90
52321;DHT22;38261;54.090;13.382;2022-07-11T03:49:29;17.60;99.90
52321;DHT22;38261;54.090;13.382;2022-07-11T03:50:51;18.50;99.90
52321;DHT22;38261;54.090;13.382;2022-07-11T03:52:14;19.40;99.90
52321;DHT22;38261;54.090;13.382;2022-07-11T03:53:36;20.10;99.90
52321;DHT22;38261;54.090;13.382;2022-07-11T03:54:58;20.80;99.90
52321;DHT22;38261;54.090;13.382;2022-07-11T03:56:20;21.20;99.90
52321;DHT22;38261;54.090;13.382;2022-07-11T03:57:44;21.50;99.90
52321;DHT22;38261;54.090;13.382;2022-07-11T03:59:06;21.30;99.60
52321;DHT22;38261;54.090;13.382;2022-07-11T04:00:28;20.70;99.80
52321;DHT22;38261;54.090;13.382;2022-07-11T04:01:50;20.00;99.90
52321;DHT22;38261;54.090;13.382;2022-07-11T04:03:13;19.70;99.90
52321;DHT22;38261;54.090;13.382;2022-07-11T04:04:35;19.70;99.90
52321;DHT22;38261;54.090;13.382;2022-07-11T04:05:57;19.70;99.90
52321;DHT22;38261;54.090;13.382;2022-07-11T04:07:19;19.70;99.90
52321;DHT22;38261;54.090;13.382;2022-07-11T04:08:42;19.80;99.90
52321;DHT22;38261;54.090;13.382;2022-07-11T04:10:04;19.70;99.90
52321;DHT22;38261;54.090;13.382;2022-07-11T04:11:27;19.50;99.90
52321;DHT22;38261;54.090;13.382;2022-07-11T04:12:49;19.40;99.90
52321;DHT22;38261;54.090;13.382;2022-07-11T04:14:11;19.30;99.90
52321;DHT22;38261;54.090;13.382;2022-07-11T04:15:33;19.10;99.90
52321;DHT22;38261;54.090;13.382;2022-07-11T04:16:56;18.90;99.90
52321;DHT22;38261;54.090;13.382;2022-07-11T04:18:18;19.10;99.90
52321;DHT22;38261;54.090;13.382;2022-07-11T04:19:40;19.50;99.90
52321;DHT22;38261;54.090;13.382;2022-07-11T04:21:05;20.00;99.90
52321;DHT22;38261;54.090;13.382;2022-07-11T04:22:30;20.50;99.90
52321;DHT22;38261;54.090;13.382;2022-07-11T04:23:53;21.00;99.90
52321;DHT22;38261;54.090;13.382;2022-07-11T04:25:15;21.40;99.90
52321;DHT22;38261;54.090;13.382;2022-07-11T04:26:37;21.80;99.70
52321;DHT22;38261;54.090;13.382;2022-07-11T04:27:59;22.10;99.30
52321;DHT22;38261;54.090;13.382;2022-07-11T04:29:21;22.60;98.70
52321;DHT22;38261;54.090;13.382;2022-07-11T04:30:43;23.00;97.90
52321;DHT22;38261;54.090;13.382;2022-07-11T04:32:06;23.20;97.50
52321;DHT22;38261;54.090;13.382;2022-07-11T04:33:29;23.50;96.90
52321;DHT22;38261;54.090;13.382;2022-07-11T04:34:51;23.60;96.60
52321;DHT22;38261;54.090;13.382;2022-07-11T04:36:13;23.90;96.30
52321;DHT22;38261;54.090;13.382;2022-07-11T04:37:35;24.20;95.90
52321;DHT22;38261;54.090;13.382;2022-07-11T04:38:57;24.50;95.60
52321;DHT22;38261;54.090;13.382;2022-07-11T04:40:20;25.00;94.90
52321;DHT22;38261;54.090;13.382;2022-07-11T04:41:45;25.40;94.20
52321;DHT22;38261;54.090;13.382;2022-07-11T04:43:07;25.90;93.90
52321;DHT22;38261;54.090;13.382;2022-07-11T04:44:29;26.30;93.10
52321;DHT22;38261;54.090;13.382;2022-07-11T04:45:51;26.80;92.70
52321;DHT22;38261;54.090;13.382;2022-07-11T04:47:20;27.30;91.70
52321;DHT22;38261;54.090;13.382;2022-07-11T04:48:42;27.60;91.40
52321;DHT22;38261;54.090;13.382;2022-07-11T04:50:05;27.90;90.60
52321;DHT22;38261;54.090;13.382;2022-07-11T04:51:27;27.80;90.40
52321;DHT22;38261;54.090;13.382;2022-07-11T04:52:49;27.90;90.30
52321;DHT22;38261;54.090;13.382;2022-07-11T04:54:11;27.70;90.40
52321;DHT22;38261;54.090;13.382;2022-07-11T04:55:33;27.30;90.50
52321;DHT22;38261;54.090;13.382;2022-07-11T04:57:00;27.00;90.70
52321;DHT22;38261;54.090;13.382;2022-07-11T04:58:22;26.40;91.20
52321;DHT22;38261;54.090;13.382;2022-07-11T04:59:44;26.20;91.60
52321;DHT22;38261;54.090;13.382;2022-07-11T05:01:06;26.20;91.80
52321;DHT22;38261;54.090;13.382;2022-07-11T05:02:28;26.40;91.60
52321;DHT22;38261;54.090;13.382;2022-07-11T05:03:50;26.10;91.80
52321;DHT22;38261;54.090;13.382;2022-07-11T05:05:13;26.00;92.00
52321;DHT22;38261;54.090;13.382;2022-07-11T05:06:36;26.20;92.00
52321;DHT22;38261;54.090;13.382;2022-07-11T05:07:58;26.40;91.80
52321;DHT22;38261;54.090;13.382;2022-07-11T05:09:20;26.50;91.60
52321;DHT22;38261;54.090;13.382;2022-07-11T05:10:42;26.60;91.60
52321;DHT22;38261;54.090;13.382;2022-07-11T05:12:04;26.50;91.60
52321;DHT22;38261;54.090;13.382;2022-07-11T05:13:28;26.20;92.20
52321;DHT22;38261;54.090;13.382;2022-07-11T05:14:50;25.90;92.20
52321;DHT22;38261;54.090;13.382;2022-07-11T05:16:12;25.70;92.60
52321;DHT22;38261;54.090;13.382;2022-07-11T05:17:35;25.90;92.60
52321;DHT22;38261;54.090;13.382;2022-07-11T05:18:57;26.30;92.10
52321;DHT22;38261;54.090;13.382;2022-07-11T05:20:19;26.40;91.90
52321;DHT22;38261;54.090;13.382;2022-07-11T05:21:42;26.30;92.00
52321;DHT22;38261;54.090;13.382;2022-07-11T05:23:04;26.30;92.00
52321;DHT22;38261;54.090;13.382;2022-07-11T05:24:26;26.20;92.10
52321;DHT22;38261;54.090;13.382;2022-07-11T05:25:48;26.20;92.30
52321;DHT22;38261;54.090;13.382;2022-07-11T05:27:12;26.10;92.40
52321;DHT22;38261;54.090;13.382;2022-07-11T05:28:35;26.10;92.50
52321;DHT22;38261;54.090;13.382;2022-07-11T05:29:57;26.30;92.10
52321;DHT22;38261;54.090;13.382;2022-07-11T05:31:19;26.00;92.40
52321;DHT22;38261;54.090;13.382;2022-07-11T05:32:41;25.70;92.90
52321;DHT22;38261;54.090;13.382;2022-07-11T05:34:04;25.70;93.00
52321;DHT22;38261;54.090;13.382;2022-07-11T05:35:26;25.60;93.10
52321;DHT22;38261;54.090;13.382;2022-07-11T05:36:48;25.20;93.20
52321;DHT22;38261;54.090;13.382;2022-07-11T05:38:10;24.40;94.00
52321;DHT22;38261;54.090;13.382;2022-07-11T05:39:32;23.80;94.70
52321;DHT22;38261;54.090;13.382;2022-07-11T05:40:54;23.40;95.30
52321;DHT22;38261;54.090;13.382;2022-07-11T05:42:17;23.10;95.60
52321;DHT22;38261;54.090;13.382;2022-07-11T05:43:39;22.90;96.40
52321;DHT22;38261;54.090;13.382;2022-07-11T05:45:01;23.00;96.10
52321;DHT22;38261;54.090;13.382;2022-07-11T05:46:23;23.10;96.10
52321;DHT22;38261;54.090;13.382;2022-07-11T05:47:46;23.00;96.00
52321;DHT22;38261;54.090;13.382;2022-07-11T05:49:08;22.70;96.20
52321;DHT22;38261;54.090;13.382;2022-07-11T05:50:31;22.30;97.00
52321;DHT22;38261;54.090;13.382;2022-07-11T05:51:53;22.30;97.20
52321;DHT22;38261;54.090;13.382;2022-07-11T05:53:15;22.20;97.00
52321;DHT22;38261;54.090;13.382;2022-07-11T05:54:37;22.00;97.60
52321;DHT22;38261;54.090;13.382;2022-07-11T05:55:59;21.90;97.80
52321;DHT22;38261;54.090;13.382;2022-07-11T05:57:21;21.90;97.80
52321;DHT22;38261;54.090;13.382;2022-07-11T05:58:44;21.90;97.80
52321;DHT22;38261;54.090;13.382;2022-07-11T06:00:07;22.00;97.80
52321;DHT22;38261;54.090;13.382;2022-07-11T06:01:30;22.10;97.80
52321;DHT22;38261;54.090;13.382;2022-07-11T06:02:57;22.20;97.90
52321;DHT22;38261;54.090;13.382;2022-07-11T06:04:20;22.50;97.40
52321;DHT22;38261;54.090;13.382;2022-07-11T06:05:42;22.90;97.00
52321;DHT22;38261;54.090;13.382;2022-07-11T06:07:04;23.30;96.60
52321;DHT22;38261;54.090;13.382;2022-07-11T06:08:27;23.70;96.00
52321;DHT22;38261;54.090;13.382;2022-07-11T06:10:04;24.20;95.60
52321;DHT22;38261;54.090;13.382;2022-07-11T06:11:27;24.90;95.00
52321;DHT22;38261;54.090;13.382;2022-07-11T06:12:49;25.40;94.10
52321;DHT22;38261;54.090;13.382;2022-07-11T06:14:11;26.10;93.20
52321;DHT22;38261;54.090;13.382;2022-07-11T06:15:33;26.30;92.90
52321;DHT22;38261;54.090;13.382;2022-07-11T06:16:55;26.60;92.10
52321;DHT22;38261;54.090;13.382;2022-07-11T06:18:18;26.50;91.70
52321;DHT22;38261;54.090;13.382;2022-07-11T06:19:40;26.50;91.80
52321;DHT22;38261;54.090;13.382;2022-07-11T06:21:03;26.70;91.60
52321;DHT22;38261;54.090;13.382;2022-07-11T06:22:25;26.70;91.30
52321;DHT22;38261;54.090;13.382;2022-07-11T06:23:47;26.30;91.10
52321;DHT22;38261;54.090;13.382;2022-07-11T06:25:09;25.80;91.50
52321;DHT22;38261;54.090;13.382;2022-07-11T06:26:32;25.50;92.00
52321;DHT22;38261;54.090;13.382;2022-07-11T06:27:54;24.90;92.00
52321;DHT22;38261;54.090;13.382;2022-07-11T06:29:16;24.30;92.70
52321;DHT22;38261;54.090;13.382;2022-07-11T06:30:39;23.70;93.40
52321;DHT22;38261;54.090;13.382;2022-07-11T06:32:01;23.40;93.90
52321;DHT22;38261;54.090;13.382;2022-07-11T06:33:23;23.10;94.20
52321;DHT22;38261;54.090;13.382;2022-07-11T06:34:45;22.80;94.60
52321;DHT22;38261;54.090;13.382;2022-07-11T06:36:08;22.80;94.60
52321;DHT22;38261;54.090;13.382;2022-07-11T06:37:30;22.40;95.10
52321;DHT22;38261;54.090;13.382;2022-07-11T06:38:53;22.10;95.30
52321;DHT22;38261;54.090;13.382;2022-07-11T06:40:15;21.70;95.30
52321;DHT22;38261;54.090;13.382;2022-07-11T06:41:39;21.60;95.80
52321;DHT22;38261;54.090;13.382;2022-07-11T06:43:01;21.60;96.20
52321;DHT22;38261;54.090;13.382;2022-07-11T06:44:24;21.60;96.00
52321;DHT22;38261;54.090;13.382;2022-07-11T06:45:49;21.70;96.00
52321;DHT22;38261;54.090;13.382;2022-07-11T06:47:11;21.50;95.60
52321;DHT22;38261;54.090;13.382;2022-07-11T06:48:33;21.30;95.60
52321;DHT22;38261;54.090;13.382;2022-07-11T06:49:55;21.20;95.60
52321;DHT22;38261;54.090;13.382;2022-07-11T06:51:18;21.20;95.20
52321;DHT22;38261;54.090;13.382;2022-07-11T06:52:40;20.80;95.20
52321;DHT22;38261;54.090;13.382;2022-07-11T06:54:02;20.50;95.80
52321;DHT22;38261;54.090;13.382;2022-07-11T06:55:25;20.20;96.30
52321;DHT22;38261;54.090;13.382;2022-07-11T06:56:47;20.20;96.40
52321;DHT22;38261;54.090;13.382;2022-07-11T06:58:09;20.20;96.20
52321;DHT22;38261;54.090;13.382;2022-07-11T06:59:47;20.10;95.90
52321;DHT22;38261;54.090;13.382;2022-07-11T07:01:09;20.00;96.20
52321;DHT22;38261;54.090;13.382;2022-07-11T07:02:31;20.00;96.60
52321;DHT22;38261;54.090;13.382;2022-07-11T07:03:53;20.00;96.10
52321;DHT22;38261;54.090;13.382;2022-07-11T07:05:16;19.90;95.80
52321;DHT22;38261;54.090;13.382;2022-07-11T07:06:38;19.80;96.00
52321;DHT22;38261;54.090;13.382;2022-07-11T07:08:01;19.70;95.70
52321;DHT22;38261;54.090;13.382;2022-07-11T07:09:23;19.60;96.00
52321;DHT22;38261;54.090;13.382;2022-07-11T07:10:45;19.60;96.30
52321;DHT22;38261;54.090;13.382;2022-07-11T07:12:07;19.70;96.40
52321;DHT22;38261;54.090;13.382;2022-07-11T07:13:30;19.80;96.50
52321;DHT22;38261;54.090;13.382;2022-07-11T07:14:52;19.90;95.70
52321;DHT22;38261;54.090;13.382;2022-07-11T07:16:14;19.90;95.00
52321;DHT22;38261;54.090;13.382;2022-07-11T07:17:37;20.00;95.20
52321;DHT22;38261;54.090;13.382;2022-07-11T07:18:59;20.10;95.80
52321;DHT22;38261;54.090;13.382;2022-07-11T07:20:22;20.20;95.70
52321;DHT22;38261;54.090;13.382;2022-07-11T07:21:44;20.20;94.70
52321;DHT22;38261;54.090;13.382;2022-07-11T07:23:06;20.30;94.90
52321;DHT22;38261;54.090;13.382;2022-07-11T07:24:28;20.40;94.90
52321;DHT22;38261;54.090;13.382;2022-07-11T07:25:51;20.50;94.50
52321;DHT22;38261;54.090;13.382;2022-07-11T07:27:13;20.60;94.80
52321;DHT22;38261;54.090;13.382;2022-07-11T07:28:36;20.70;93.80
52321;DHT22;38261;54.090;13.382;2022-07-11T07:30:00;20.80;93.70
52321;DHT22;38261;54.090;13.382;2022-07-11T07:31:23;20.80;94.00
52321;DHT22;38261;54.090;13.382;2022-07-11T07:32:45;20.90;94.20
52321;DHT22;38261;54.090;13.382;2022-07-11T07:34:07;20.90;94.50
52321;DHT22;38261;54.090;13.382;2022-07-11T07:35:32;20.60;93.80
52321;DHT22;38261;54.090;13.382;2022-07-11T07:36:54;20.50;93.60
52321;DHT22;38261;54.090;13.382;2022-07-11T07:38:17;20.50;93.90
52321;DHT22;38261;54.090;13.382;2022-07-11T07:39:39;20.40;94.30
52321;DHT22;38261;54.090;13.382;2022-07-11T07:41:01;20.50;94.80
52321;DHT22;38261;54.090;13.382;2022-07-11T07:42:23;20.60;94.90
52321;DHT22;38261;54.090;13.382;2022-07-11T07:43:45;20.70;94.30
52321;DHT22;38261;54.090;13.382;2022-07-11T07:45:10;20.60;94.10
52321;DHT22;38261;54.090;13.382;2022-07-11T07:46:33;20.60;94.10
52321;DHT22;38261;54.090;13.382;2022-07-11T07:47:55;20.70;93.80
52321;DHT22;38261;54.090;13.382;2022-07-11T07:49:18;20.60;93.90
52321;DHT22;38261;54.090;13.382;2022-07-11T07:50:40;20.60;93.90
52321;DHT22;38261;54.090;13.382;2022-07-11T07:52:03;20.60;94.20
52321;DHT22;38261;54.090;13.382;2022-07-11T07:53:25;20.70;94.50
52321;DHT22;38261;54.090;13.382;2022-07-11T07:54:47;21.00;94.50
52321;DHT22;38261;54.090;13.382;2022-07-11T07:56:09;21.10;94.20
52321;DHT22;38261;54.090;13.382;2022-07-11T07:57:32;21.20;94.70
52321;DHT22;38261;54.090;13.382;2022-07-11T07:58:54;21.20;94.80
52321;DHT22;38261;54.090;13.382;2022-07-11T08:00:16;21.40;94.60
52321;DHT22;38261;54.090;13.382;2022-07-11T08:01:59;21.60;94.40
52321;DHT22;38261;54.090;13.382;2022-07-11T08:03:22;21.60;94.00
52321;DHT22;38261;54.090;13.382;2022-07-11T08:04:44;21.50;94.30
52321;DHT22;38261;54.090;13.382;2022-07-11T08:06:06;21.60;93.90
52321;DHT22;38261;54.090;13.382;2022-07-11T08:07:28;21.60;93.60
52321;DHT22;38261;54.090;13.382;2022-07-11T08:08:50;21.60;93.60
52321;DHT22;38261;54.090;13.382;2022-07-11T08:10:12;21.60;93.60
52321;DHT22;38261;54.090;13.382;2022-07-11T08:11:36;21.50;93.30
52321;DHT22;38261;54.090;13.382;2022-07-11T08:12:58;21.30;93.10
52321;DHT22;38261;54.090;13.382;2022-07-11T08:14:21;21.20;93.30
52321;DHT22;38261;54.090;13.382;2022-07-11T08:15:43;21.20;93.70
52321;DHT22;38261;54.090;13.382;2022-07-11T08:17:05;21.50;93.90
52321;DHT22;38261;54.090;13.382;2022-07-11T08:18:27;21.70;93.90
52321;DHT22;38261;54.090;13.382;2022-07-11T08:19:50;21.80;93.40
52321;DHT22;38261;54.090;13.382;2022-07-11T08:21:12;21.80;92.90
52321;DHT22;38261;54.090;13.382;2022-07-11T08:22:35;21.80;92.50
52321;DHT22;38261;54.090;13.382;2022-07-11T08:23:57;21.80;92.60
52321;DHT22;38261;54.090;13.382;2022-07-11T08:25:20;21.80;92.20
52321;DHT22;38261;54.090;13.382;2022-07-11T08:26:43;21.70;91.80
52321;DHT22;38261;54.090;13.382;2022-07-11T08:28:05;21.60;92.10
52321;DHT22;38261;54.090;13.382;2022-07-11T08:29:28;21.60;92.50
52321;DHT22;38261;54.090;13.382;2022-07-11T08:30:50;21.60;92.30
52321;DHT22;38261;54.090;13.382;2022-07-11T08:32:12;21.70;92.60
52321;DHT22;38261;54.090;13.382;2022-07-11T08:33:34;21.80;92.50
52321;DHT22;38261;54.090;13.382;2022-07-11T08:34:56;21.90;92.60